createdAt,value
2023-05-03T00:01:30.070Z,80.50
2023-05-03T00:03:57.129Z,79.60
2023-05-03T00:06:24.084Z,79.90
2023-05-03T00:08:51.308Z,80.30
2023-05-03T00:11:18.546Z,80.00
2023-05-03T00:13:46.019Z,80.00
2023-05-03T00:16:13.022Z,80.40
2023-05-03T00:18:40.992Z,79.80
2023-05-03T00:21:08.008Z,79.90
2023-05-03T00:23:34.982Z,79.90
2023-05-03T00:26:01.857Z,80.20
2023-05-03T00:28:28.781Z,81.10
2023-05-03T00:30:56.703Z,80.50
2023-05-03T00:33:23.887Z,80.30
2023-05-03T00:35:50.893Z,80.20
2023-05-03T00:38:18.174Z,80.30
2023-05-03T00:40:45.076Z,80.60
2023-05-03T00:43:13.415Z,80.50
2023-05-03T00:45:40.577Z,80.30
2023-05-03T00:48:07.743Z,80.20
2023-05-03T00:50:36.978Z,80.40
2023-05-03T00:53:05.068Z,80.80
2023-05-03T00:55:33.201Z,80.30
2023-05-03T00:58:00.139Z,80.10
2023-05-03T01:00:27.171Z,80.70
2023-05-03T01:02:54.613Z,80.80
2023-05-03T01:05:23.033Z,81.30
2023-05-03T01:07:58.898Z,81.10
2023-05-03T01:10:42.382Z,81.00
2023-05-03T01:13:28.155Z,81.20
2023-05-03T01:16:10.954Z,81.30
2023-05-03T01:18:44.383Z,81.80
2023-05-03T01:21:14.891Z,80.80
2023-05-03T01:24:09.839Z,80.50
2023-05-03T01:26:37.278Z,80.00
2023-05-03T01:29:04.308Z,79.80
2023-05-03T01:31:44.222Z,80.00
2023-05-03T01:34:31.751Z,79.90
2023-05-03T01:37:00.309Z,80.00
2023-05-03T01:39:46.185Z,80.00
2023-05-03T01:42:14.844Z,79.50
2023-05-03T01:44:42.759Z,80.00
2023-05-03T01:47:11.477Z,79.70
2023-05-03T01:49:38.434Z,80.30
2023-05-03T01:52:05.848Z,80.60
2023-05-03T01:54:32.892Z,80.00
2023-05-03T01:56:59.866Z,80.40
2023-05-03T01:59:26.805Z,80.10
2023-05-03T02:01:53.687Z,80.10
2023-05-03T02:04:20.681Z,80.10
2023-05-03T02:06:47.898Z,80.40
2023-05-03T02:09:14.932Z,80.30
2023-05-03T02:11:43.998Z,80.30
2023-05-03T02:14:10.906Z,80.70
2023-05-03T02:16:38.086Z,80.70
2023-05-03T02:19:05.568Z,80.60
2023-05-03T02:21:34.406Z,79.70
2023-05-03T02:24:01.873Z,79.90
2023-05-03T02:26:29.004Z,80.10
2023-05-03T02:28:58.606Z,80.00
2023-05-03T02:31:26.576Z,80.10
2023-05-03T02:33:55.106Z,79.90
2023-05-03T02:36:22.181Z,80.40
2023-05-03T02:38:49.061Z,80.40
2023-05-03T02:41:15.938Z,80.40
2023-05-03T02:43:42.829Z,80.00
2023-05-03T02:46:09.789Z,80.20
2023-05-03T02:48:36.706Z,80.60
2023-05-03T02:51:03.684Z,80.10
2023-05-03T02:53:30.554Z,80.10
2023-05-03T02:55:57.531Z,80.00
2023-05-03T02:58:25.082Z,80.20
2023-05-03T03:00:52.657Z,79.90
2023-05-03T03:03:19.566Z,80.10
2023-05-03T03:05:46.540Z,80.00
2023-05-03T03:08:13.513Z,79.80
2023-05-03T03:10:40.576Z,80.10
2023-05-03T03:13:07.500Z,79.70
2023-05-03T03:15:34.435Z,79.40
2023-05-03T03:18:01.445Z,79.50
2023-05-03T03:20:28.570Z,79.10
2023-05-03T03:22:55.552Z,79.20
2023-05-03T03:25:22.490Z,79.00
2023-05-03T03:27:49.409Z,79.20
2023-05-03T03:30:16.669Z,79.30
2023-05-03T03:32:43.612Z,79.20
2023-05-03T03:35:10.991Z,79.00
2023-05-03T03:37:39.204Z,79.30
2023-05-03T03:40:07.660Z,79.10
2023-05-03T03:42:37.370Z,79.20
2023-05-03T03:45:04.772Z,79.30
2023-05-03T03:47:32.778Z,79.30
2023-05-03T03:50:01.925Z,79.30
2023-05-03T03:52:30.812Z,79.20
2023-05-03T03:54:58.002Z,79.30
2023-05-03T03:57:26.196Z,79.10
2023-05-03T03:59:53.159Z,79.00
2023-05-03T04:02:22.202Z,79.10
2023-05-03T04:04:49.448Z,78.90
2023-05-03T04:07:16.597Z,79.00
2023-05-03T04:09:44.763Z,78.80
2023-05-03T04:12:11.895Z,78.80
2023-05-03T04:14:42.029Z,79.00
2023-05-03T04:17:09.017Z,78.80
2023-05-03T04:19:36.035Z,79.30
2023-05-03T04:22:03.991Z,78.80
2023-05-03T04:24:30.951Z,79.50
2023-05-03T04:26:59.088Z,79.80
2023-05-03T04:29:25.933Z,80.00
2023-05-03T04:31:52.887Z,80.60
2023-05-03T04:34:19.769Z,80.50
2023-05-03T04:36:47.351Z,79.90
2023-05-03T04:39:15.476Z,80.70
2023-05-03T04:41:42.907Z,80.00
2023-05-03T04:44:09.768Z,80.40
2023-05-03T04:46:36.876Z,80.40
2023-05-03T04:49:03.908Z,80.40
2023-05-03T04:51:32.039Z,80.60
2023-05-03T04:54:00.722Z,80.70
2023-05-03T04:56:27.883Z,81.30
2023-05-03T04:58:54.890Z,81.40
2023-05-03T05:01:28.148Z,83.70
2023-05-03T05:03:55.346Z,83.80
2023-05-03T05:06:22.354Z,82.90
2023-05-03T05:08:49.255Z,83.00
2023-05-03T05:11:16.184Z,83.50
2023-05-03T05:13:43.046Z,83.20
2023-05-03T05:16:11.560Z,83.20
2023-05-03T05:18:38.427Z,83.40
2023-05-03T05:21:10.334Z,83.10
2023-05-03T05:23:37.160Z,82.80
2023-05-03T05:26:04.777Z,83.20
2023-05-03T05:28:32.426Z,83.30
2023-05-03T05:30:59.332Z,84.10
2023-05-03T05:33:26.490Z,84.10
2023-05-03T05:35:53.444Z,84.50
2023-05-03T05:38:20.410Z,84.30
2023-05-03T05:40:47.392Z,84.20
2023-05-03T05:43:14.221Z,84.60
2023-05-03T05:45:41.134Z,84.50
2023-05-03T05:48:08.357Z,84.30
2023-05-03T05:50:36.662Z,85.20
2023-05-03T05:53:03.614Z,85.30
2023-05-03T05:55:30.895Z,85.20
2023-05-03T05:57:57.745Z,85.20
2023-05-03T06:00:25.708Z,85.50
2023-05-03T06:02:52.894Z,85.10
2023-05-03T06:05:20.449Z,85.20
2023-05-03T06:07:47.532Z,84.80
2023-05-03T06:10:15.095Z,85.20
2023-05-03T06:12:43.682Z,85.10
2023-05-03T06:15:10.690Z,85.10
2023-05-03T06:17:37.989Z,85.00
2023-05-03T06:20:05.954Z,85.00
2023-05-03T06:22:34.184Z,85.40
2023-05-03T06:25:01.234Z,85.50
2023-05-03T06:27:28.238Z,85.50
2023-05-03T06:29:55.179Z,85.70
2023-05-03T06:32:23.457Z,85.60
2023-05-03T06:34:50.685Z,85.70
2023-05-03T06:37:17.823Z,85.60
2023-05-03T06:39:44.738Z,85.70
2023-05-03T06:42:11.913Z,85.90
2023-05-03T06:44:38.798Z,86.00
2023-05-03T06:47:05.802Z,86.10
2023-05-03T06:49:33.595Z,86.10
2023-05-03T06:52:00.496Z,86.10
2023-05-03T06:54:27.438Z,86.80
2023-05-03T06:56:54.340Z,81.20
2023-05-03T06:59:21.287Z,79.40
2023-05-03T07:01:50.850Z,75.40
2023-05-03T07:04:17.864Z,75.10
2023-05-03T07:06:56.013Z,73.80
2023-05-03T07:09:35.497Z,72.70
2023-05-03T07:12:08.979Z,72.00
2023-05-03T07:14:35.997Z,71.00
2023-05-03T07:17:02.905Z,72.20
2023-05-03T07:19:30.226Z,69.70
2023-05-03T07:21:57.147Z,66.20
2023-05-03T07:24:26.257Z,64.70
2023-05-03T07:26:54.841Z,63.80
2023-05-03T07:29:22.054Z,62.50
2023-05-03T07:31:50.807Z,62.40
2023-05-03T07:34:19.534Z,63.10
2023-05-03T07:36:46.658Z,62.60
2023-05-03T07:39:13.669Z,61.50
2023-05-03T07:41:40.642Z,61.70
2023-05-03T07:44:07.826Z,60.50
2023-05-03T07:46:35.563Z,60.60
2023-05-03T07:49:06.421Z,64.60
2023-05-03T07:51:37.486Z,64.60
2023-05-03T07:54:04.818Z,64.20
2023-05-03T07:56:32.054Z,64.30
2023-05-03T07:59:09.100Z,64.10
2023-05-03T08:01:37.922Z,65.10
2023-05-03T08:04:05.309Z,66.40
2023-05-03T08:06:33.553Z,65.60
2023-05-03T08:09:00.844Z,64.40
2023-05-03T08:11:29.351Z,65.00
2023-05-03T08:13:56.844Z,64.20
2023-05-03T08:16:24.686Z,64.70
2023-05-03T08:18:51.848Z,64.50
2023-05-03T08:21:19.181Z,65.90
2023-05-03T08:23:47.469Z,64.00
2023-05-03T08:26:14.746Z,65.00
2023-05-03T08:28:42.586Z,62.70
2023-05-03T08:31:09.910Z,62.40
2023-05-03T08:33:37.563Z,62.00
2023-05-03T08:36:04.902Z,61.50
2023-05-03T08:38:33.382Z,62.10
2023-05-03T08:41:17.133Z,59.40
2023-05-03T08:43:48.142Z,61.50
2023-05-03T08:46:15.241Z,62.20
2023-05-03T08:48:44.692Z,63.50
2023-05-03T08:51:12.030Z,63.00
2023-05-03T08:53:38.928Z,62.20
2023-05-03T08:56:10.684Z,64.60
2023-05-03T08:58:37.782Z,63.30
2023-05-03T09:01:09.137Z,63.90
2023-05-03T09:03:36.948Z,64.80
2023-05-03T09:06:33.409Z,65.30
2023-05-03T09:09:01.368Z,65.70
2023-05-03T09:11:32.604Z,65.70
2023-05-03T09:14:19.250Z,65.60
2023-05-03T09:16:47.487Z,65.50
2023-05-03T09:19:16.173Z,65.10
2023-05-03T09:21:45.326Z,64.90
2023-05-03T09:24:16.458Z,64.70
2023-05-03T09:26:45.583Z,64.80
2023-05-03T09:29:36.107Z,64.70
2023-05-03T09:32:07.245Z,64.50
2023-05-03T09:34:35.626Z,64.70
2023-05-03T09:37:02.949Z,64.00
2023-05-03T09:39:29.890Z,63.90
2023-05-03T09:41:58.235Z,63.00
2023-05-03T09:44:45.080Z,63.30
2023-05-03T09:47:13.186Z,63.00
2023-05-03T09:49:41.655Z,63.60
2023-05-03T09:52:09.263Z,63.60
2023-05-03T09:54:36.200Z,63.70
2023-05-03T09:57:07.418Z,63.60
2023-05-03T09:59:36.756Z,63.50
2023-05-03T10:02:07.448Z,63.00
2023-05-03T10:04:47.942Z,63.10
2023-05-03T10:07:18.354Z,62.90
2023-05-03T10:09:48.114Z,62.80
2023-05-03T10:12:19.007Z,62.60
2023-05-03T10:14:52.570Z,63.10
2023-05-03T10:17:46.171Z,62.70
2023-05-03T10:20:37.507Z,62.80
2023-05-03T10:23:14.381Z,62.30
2023-05-03T10:26:13.528Z,61.90
2023-05-03T10:28:40.532Z,63.00
2023-05-03T10:31:47.383Z,63.20
2023-05-03T10:34:25.141Z,63.20
2023-05-03T10:36:53.440Z,61.30
2023-05-03T10:39:21.404Z,63.80
2023-05-03T10:42:09.430Z,63.10
2023-05-03T10:44:40.652Z,63.40
2023-05-03T10:47:26.579Z,63.80
2023-05-03T10:50:26.506Z,64.10
2023-05-03T10:52:53.637Z,65.00
2023-05-03T10:55:24.628Z,65.30
2023-05-03T10:57:55.285Z,65.50
2023-05-03T11:00:44.717Z,66.00
2023-05-03T11:03:21.628Z,66.40
2023-05-03T11:05:51.823Z,66.70
2023-05-03T11:08:22.463Z,66.90
2023-05-03T11:11:00.395Z,67.90
2023-05-03T11:13:28.084Z,67.40
2023-05-03T11:15:56.450Z,67.70
2023-05-03T11:18:26.865Z,68.10
2023-05-03T11:20:54.196Z,68.60
2023-05-03T11:23:29.070Z,68.50
2023-05-03T11:25:57.972Z,68.90
2023-05-03T11:28:26.045Z,69.20
2023-05-03T11:30:53.245Z,69.00
2023-05-03T11:33:20.466Z,69.20
2023-05-03T11:35:47.512Z,69.50
2023-05-03T11:38:14.531Z,69.70
2023-05-03T11:40:41.731Z,69.90
2023-05-03T11:43:08.707Z,69.90
2023-05-03T11:45:45.571Z,70.00
2023-05-03T11:48:13.981Z,70.20
2023-05-03T11:50:51.681Z,70.20
2023-05-03T11:53:19.442Z,70.30
2023-05-03T11:55:49.044Z,70.90
2023-05-03T11:58:17.774Z,70.80
2023-05-03T12:00:49.711Z,70.80
2023-05-03T12:03:36.371Z,70.40
2023-05-03T12:06:06.549Z,70.00
2023-05-03T12:08:38.327Z,69.40
2023-05-03T12:11:09.818Z,69.30
2023-05-03T12:13:40.348Z,69.10
2023-05-03T12:16:13.769Z,68.90
2023-05-03T12:19:03.166Z,68.70
2023-05-03T12:21:55.319Z,68.70
2023-05-03T12:24:33.246Z,68.60
2023-05-03T12:27:02.894Z,68.70
2023-05-03T12:29:34.915Z,68.70
2023-05-03T12:32:04.215Z,68.80
2023-05-03T12:34:35.036Z,68.90
2023-05-03T12:37:04.715Z,68.90
2023-05-03T12:39:33.445Z,69.00
2023-05-03T12:44:35.033Z,69.10
2023-05-03T12:47:04.136Z,69.10
2023-05-03T12:49:31.790Z,69.10
2023-05-03T12:54:33.788Z,69.20
2023-05-03T12:57:08.513Z,69.30
2023-05-03T12:59:42.504Z,69.30
2023-05-03T13:07:15.161Z,69.50
2023-05-03T13:12:16.055Z,69.70
2023-05-03T13:14:42.998Z,69.60
2023-05-03T13:17:10.336Z,69.70
2023-05-03T13:19:37.986Z,69.80
2023-05-03T13:22:05.192Z,69.90
2023-05-03T13:24:32.252Z,69.90
2023-05-03T13:26:59.250Z,69.90
2023-05-03T13:29:26.843Z,70.00
2023-05-03T13:31:53.724Z,70.00
2023-05-03T13:34:22.175Z,70.00
2023-05-03T13:36:49.202Z,70.10
2023-05-03T13:39:16.493Z,70.20
2023-05-03T13:41:43.565Z,70.20
2023-05-03T13:44:12.108Z,70.20
2023-05-03T13:46:41.676Z,70.30
2023-05-03T13:49:08.795Z,70.40
2023-05-03T13:51:36.245Z,70.50
2023-05-03T13:54:05.843Z,70.70
2023-05-03T13:56:33.403Z,70.60
2023-05-03T13:59:00.707Z,70.80
2023-05-03T14:01:28.875Z,70.80
2023-05-03T14:03:56.292Z,70.90
2023-05-03T14:06:23.830Z,71.00
2023-05-03T14:08:55.073Z,70.90
2023-05-03T14:11:22.622Z,71.00
2023-05-03T14:13:56.886Z,70.90
2023-05-03T14:18:56.163Z,71.70
2023-05-03T14:21:23.151Z,71.10
2023-05-03T14:23:51.023Z,71.30
2023-05-03T14:26:19.458Z,71.60
2023-05-03T14:28:46.614Z,71.50
2023-05-03T14:31:13.634Z,71.60
2023-05-03T14:33:41.708Z,71.40
2023-05-03T14:36:17.701Z,71.20
2023-05-03T14:38:45.133Z,71.20
2023-05-03T14:41:12.193Z,71.20
2023-05-03T14:43:39.208Z,71.30
2023-05-03T14:46:06.223Z,71.30
2023-05-03T14:48:33.152Z,71.20
2023-05-03T14:51:00.032Z,71.10
2023-05-03T14:53:26.980Z,71.00
2023-05-03T14:55:54.587Z,71.00
2023-05-03T14:58:21.854Z,70.90
2023-05-03T15:00:49.207Z,70.50
2023-05-03T15:03:16.320Z,70.20
2023-05-03T15:05:47.645Z,69.90
2023-05-03T15:08:16.168Z,69.90
2023-05-03T15:10:44.771Z,69.50
2023-05-03T15:13:12.971Z,69.50
2023-05-03T15:15:46.077Z,69.50
2023-05-03T15:18:14.705Z,69.70
2023-05-03T15:20:41.885Z,69.80
2023-05-03T15:23:08.767Z,70.00
2023-05-03T15:25:35.737Z,69.90
2023-05-03T15:28:04.678Z,70.60
2023-05-03T15:30:32.813Z,70.00
2023-05-03T15:33:01.117Z,70.00
2023-05-03T15:35:28.165Z,70.30
2023-05-03T15:37:55.096Z,70.30
2023-05-03T15:40:25.169Z,70.50
2023-05-03T15:42:53.733Z,71.30
2023-05-03T15:45:23.191Z,70.80
2023-05-03T15:47:50.496Z,71.10
2023-05-03T15:50:17.552Z,71.30
2023-05-03T15:52:46.814Z,71.60
2023-05-03T15:55:14.100Z,71.50
2023-05-03T15:57:41.239Z,71.50
2023-05-03T16:00:15.341Z,71.60
2023-05-03T16:02:42.898Z,71.90
2023-05-03T16:05:11.254Z,71.80
2023-05-03T16:07:38.261Z,71.90
2023-05-03T16:10:06.583Z,71.90
2023-05-03T16:12:33.809Z,71.90
2023-05-03T16:15:01.056Z,73.20
2023-05-03T16:17:28.104Z,72.40
2023-05-03T16:19:56.353Z,73.00
2023-05-03T16:22:23.242Z,72.00
2023-05-03T16:24:50.849Z,72.70
2023-05-03T16:27:17.751Z,72.80
2023-05-03T16:29:46.092Z,73.30
2023-05-03T16:32:13.693Z,73.40
2023-05-03T16:34:40.754Z,72.70
2023-05-03T16:37:07.776Z,73.10
2023-05-03T16:39:34.831Z,72.90
2023-05-03T16:42:03.106Z,72.30
2023-05-03T16:44:29.986Z,72.60
2023-05-03T16:46:56.951Z,72.00
2023-05-03T16:49:24.057Z,72.80
2023-05-03T16:51:51.095Z,72.20
2023-05-03T16:54:18.099Z,71.60
2023-05-03T16:56:45.092Z,72.00
2023-05-03T16:59:12.063Z,72.40
2023-05-03T17:01:40.412Z,72.10
2023-05-03T17:04:07.947Z,72.40
2023-05-03T17:06:34.809Z,72.70
2023-05-03T17:09:01.847Z,72.60
2023-05-03T17:11:29.389Z,71.90
2023-05-03T17:13:56.442Z,72.30
2023-05-03T17:16:23.518Z,72.60
2023-05-03T17:18:50.640Z,72.60
2023-05-03T17:21:19.276Z,72.40
2023-05-03T17:23:46.815Z,73.30
2023-05-03T17:26:14.589Z,73.30
2023-05-03T17:28:48.443Z,73.10
2023-05-03T17:31:15.597Z,72.90
2023-05-03T17:33:44.686Z,72.40
2023-05-03T17:36:11.602Z,72.90
2023-05-03T17:38:38.645Z,72.50
2023-05-03T17:41:10.497Z,73.10
2023-05-03T17:43:38.331Z,73.40
2023-05-03T17:46:11.006Z,72.90
2023-05-03T17:48:40.367Z,73.10
2023-05-03T17:51:08.069Z,72.90
2023-05-03T17:53:35.382Z,73.60
2023-05-03T17:56:02.288Z,73.30
2023-05-03T17:58:29.247Z,74.20
2023-05-03T18:00:57.200Z,73.20
2023-05-03T18:03:25.900Z,73.50
2023-05-03T18:05:53.161Z,73.10
2023-05-03T18:08:20.612Z,73.60
2023-05-03T18:10:47.583Z,73.70
2023-05-03T18:13:14.656Z,74.00
2023-05-03T18:15:42.284Z,74.50
2023-05-03T18:18:09.531Z,74.30
2023-05-03T18:20:36.533Z,74.30
2023-05-03T18:23:03.851Z,73.60
2023-05-03T18:25:30.768Z,74.60
2023-05-03T18:27:57.827Z,73.90
2023-05-03T18:30:29.170Z,74.10
2023-05-03T18:32:56.381Z,74.30
2023-05-03T18:35:23.641Z,74.80
2023-05-03T18:37:50.632Z,74.10
2023-05-03T18:40:17.682Z,74.10
2023-05-03T18:42:46.148Z,75.00
2023-05-03T18:45:15.153Z,74.70
2023-05-03T18:47:42.346Z,74.80
2023-05-03T18:50:10.034Z,75.50
2023-05-03T18:52:37.503Z,75.00
2023-05-03T18:55:04.936Z,74.90
2023-05-03T18:57:31.878Z,74.30
2023-05-03T19:00:01.264Z,75.40
2023-05-03T19:02:31.452Z,75.50
2023-05-03T19:04:59.141Z,75.60
2023-05-03T19:07:26.142Z,75.90
2023-05-03T19:09:54.240Z,75.90
2023-05-03T19:12:21.217Z,75.10
2023-05-03T19:14:48.079Z,75.30
2023-05-03T19:17:15.101Z,75.50
2023-05-03T19:19:42.861Z,75.60
2023-05-03T19:22:09.767Z,76.00
2023-05-03T19:24:36.796Z,75.00
2023-05-03T19:27:04.853Z,75.30
2023-05-03T19:29:32.502Z,75.80
2023-05-03T19:31:59.514Z,75.10
2023-05-03T19:34:27.996Z,75.20
2023-05-03T19:36:55.282Z,75.40
2023-05-03T19:39:22.453Z,75.70
2023-05-03T19:41:50.433Z,75.50
2023-05-03T19:44:18.728Z,75.50
2023-05-03T19:46:45.902Z,75.30
2023-05-03T19:49:12.895Z,75.50
2023-05-03T19:51:41.970Z,74.40
2023-05-03T19:54:09.323Z,75.10
2023-05-03T19:56:36.186Z,74.70
2023-05-03T19:59:03.217Z,75.20
2023-05-03T20:01:30.085Z,74.60
2023-05-03T20:03:57.158Z,74.20
2023-05-03T20:06:24.127Z,74.50
2023-05-03T20:08:51.326Z,74.00
2023-05-03T20:11:22.712Z,74.30
2023-05-03T20:13:49.868Z,74.30
2023-05-03T20:16:18.254Z,73.90
2023-05-03T20:18:47.252Z,74.40
2023-05-03T20:21:14.571Z,74.80
2023-05-03T20:23:44.218Z,74.40
2023-05-03T20:26:11.086Z,74.50
2023-05-03T20:28:38.102Z,74.20
2023-05-03T20:31:05.032Z,75.10
2023-05-03T20:33:32.611Z,75.00
2023-05-03T20:35:59.525Z,74.70
2023-05-03T20:38:26.448Z,74.40
2023-05-03T20:40:53.554Z,74.50
2023-05-03T20:43:20.606Z,75.10
2023-05-03T20:45:48.786Z,74.60
2023-05-03T20:48:15.993Z,74.90
2023-05-03T20:50:44.200Z,74.60
2023-05-03T20:53:11.430Z,75.30
2023-05-03T20:55:38.778Z,75.20
2023-05-03T20:58:05.963Z,75.10
2023-05-03T21:00:32.904Z,75.30
2023-05-03T21:02:59.995Z,75.40
2023-05-03T21:05:27.156Z,74.60
2023-05-03T21:07:54.067Z,74.90
2023-05-03T21:10:20.915Z,75.20
2023-05-03T21:12:47.875Z,75.10
2023-05-03T21:15:14.764Z,75.70
2023-05-03T21:17:41.849Z,75.10
2023-05-03T21:20:09.442Z,75.20
2023-05-03T21:22:36.456Z,75.50
2023-05-03T21:25:04.267Z,73.30
2023-05-03T21:27:31.530Z,74.20
2023-05-03T21:29:58.820Z,74.10
2023-05-03T21:32:25.805Z,74.80
2023-05-03T21:34:55.437Z,75.00
2023-05-03T21:37:22.373Z,75.00
2023-05-03T21:40:05.402Z,75.30
2023-05-03T21:42:33.040Z,75.30
2023-05-03T21:44:59.872Z,75.50
2023-05-03T21:47:27.873Z,75.30
2023-05-03T21:49:54.922Z,75.30
2023-05-03T21:52:21.818Z,75.20
2023-05-03T21:54:48.694Z,75.70
2023-05-03T21:57:16.493Z,76.00
2023-05-03T21:59:44.199Z,76.20
2023-05-03T22:02:11.238Z,76.00
2023-05-03T22:04:38.190Z,75.90
2023-05-03T22:07:05.096Z,76.00
2023-05-03T22:09:33.520Z,76.20
2023-05-03T22:12:03.813Z,76.20
2023-05-03T22:14:35.544Z,76.20
2023-05-03T22:17:02.426Z,76.20
2023-05-03T22:19:29.696Z,76.00
2023-05-03T22:21:56.753Z,76.10
2023-05-03T22:24:23.880Z,76.20
2023-05-03T22:26:52.104Z,76.10
2023-05-03T22:29:19.051Z,76.40
2023-05-03T22:31:46.238Z,76.30
2023-05-03T22:34:13.180Z,76.80
2023-05-03T22:36:41.641Z,76.20
2023-05-03T22:39:08.743Z,76.40
2023-05-03T22:41:35.608Z,76.40
2023-05-03T22:44:03.608Z,76.40
2023-05-03T22:46:30.551Z,76.60
2023-05-03T22:48:57.490Z,76.50
2023-05-03T22:51:25.069Z,76.50
2023-05-03T22:53:51.967Z,76.80
2023-05-03T22:56:19.167Z,76.50
2023-05-03T22:58:48.546Z,76.50
2023-05-03T23:01:16.911Z,76.40
2023-05-03T23:03:44.557Z,76.50
2023-05-03T23:06:11.605Z,76.60
2023-05-03T23:08:38.906Z,76.50
2023-05-03T23:11:05.915Z,76.60
2023-05-03T23:13:32.853Z,77.00
2023-05-03T23:15:59.938Z,76.70
2023-05-03T23:18:27.203Z,76.90
2023-05-03T23:20:54.042Z,76.70
2023-05-03T23:23:20.939Z,76.80
2023-05-03T23:25:47.998Z,76.80
2023-05-03T23:28:14.922Z,76.60
2023-05-03T23:30:43.907Z,76.80
2023-05-03T23:33:11.966Z,76.90
2023-05-03T23:35:40.406Z,76.60
2023-05-03T23:38:07.552Z,77.10
2023-05-03T23:40:34.446Z,76.80
2023-05-03T23:43:01.509Z,77.10
2023-05-03T23:45:28.385Z,77.00
2023-05-03T23:47:55.519Z,76.70
2023-05-03T23:50:22.480Z,77.00
2023-05-03T23:52:49.376Z,77.00
2023-05-03T23:55:16.297Z,77.40
2023-05-03T23:57:43.281Z,76.90
